createdAt,value
2018-06-30T00:02:23.877Z,3.50
2018-06-30T00:04:50.196Z,3.47
2018-06-30T00:07:16.634Z,3.63
2018-06-30T00:09:42.994Z,3.20
2018-06-30T00:12:09.369Z,3.00
2018-06-30T00:14:35.729Z,3.27
2018-06-30T00:17:02.167Z,3.30
2018-06-30T00:19:28.600Z,3.30
2018-06-30T00:21:54.954Z,3.40
2018-06-30T00:24:21.348Z,3.40
2018-06-30T00:26:47.728Z,3.10
2018-06-30T00:29:14.084Z,3.20
2018-06-30T00:31:40.439Z,3.40
2018-06-30T00:34:06.810Z,3.17
2018-06-30T00:36:33.179Z,3.60
2018-06-30T00:38:59.632Z,3.00
2018-06-30T00:41:25.980Z,3.37
2018-06-30T00:43:52.401Z,3.57
2018-06-30T00:46:18.856Z,3.53
2018-06-30T00:48:45.232Z,3.10
2018-06-30T00:51:11.558Z,3.13
2018-06-30T00:53:37.915Z,3.30
2018-06-30T00:56:04.243Z,3.50
2018-06-30T00:58:30.599Z,3.63
2018-06-30T01:00:57.061Z,3.60
2018-06-30T01:03:23.467Z,3.27
2018-06-30T01:05:49.839Z,3.43
2018-06-30T01:08:16.165Z,3.20
2018-06-30T01:10:42.528Z,3.10
2018-06-30T01:13:08.896Z,3.10
2018-06-30T01:15:35.261Z,3.20
2018-06-30T01:18:01.580Z,3.33
2018-06-30T01:20:27.963Z,3.17
2018-06-30T01:22:54.284Z,3.40
2018-06-30T01:25:20.639Z,3.60
2018-06-30T01:27:46.975Z,3.30
2018-06-30T01:30:13.332Z,3.83
2018-06-30T01:32:39.688Z,3.50
2018-06-30T01:35:06.046Z,3.13
2018-06-30T01:37:32.420Z,3.57
2018-06-30T01:39:58.772Z,2.93
2018-06-30T01:42:25.134Z,3.50
2018-06-30T01:44:51.435Z,2.93
2018-06-30T01:47:17.807Z,3.80
2018-06-30T01:49:44.175Z,2.97
2018-06-30T01:52:10.492Z,3.40
2018-06-30T01:54:36.839Z,3.50
2018-06-30T01:57:03.194Z,3.40
2018-06-30T01:59:29.515Z,3.20
2018-06-30T02:01:55.863Z,3.70
2018-06-30T02:04:22.259Z,3.80
2018-06-30T02:06:48.578Z,3.10
2018-06-30T02:09:14.961Z,3.67
2018-06-30T02:11:41.295Z,3.47
2018-06-30T02:14:07.621Z,3.30
2018-06-30T02:16:33.978Z,4.20
2018-06-30T02:19:00.310Z,3.70
2018-06-30T02:21:26.632Z,3.20
2018-06-30T02:23:53.007Z,4.03
2018-06-30T02:26:19.440Z,3.37
2018-06-30T02:28:45.764Z,3.70
2018-06-30T02:31:12.103Z,3.87
2018-06-30T02:33:38.439Z,3.60
2018-06-30T02:36:04.794Z,3.60
2018-06-30T02:38:31.121Z,3.83
2018-06-30T02:40:57.473Z,3.67
2018-06-30T02:43:23.829Z,3.60
2018-06-30T02:45:50.167Z,3.83
2018-06-30T02:48:16.563Z,4.20
2018-06-30T02:50:42.892Z,3.90
2018-06-30T02:53:09.231Z,3.67
2018-06-30T02:55:35.620Z,3.90
2018-06-30T02:58:01.992Z,4.10
2018-06-30T03:00:28.368Z,4.13
2018-06-30T03:02:54.740Z,3.90
2018-06-30T03:05:21.083Z,3.67
2018-06-30T03:07:47.404Z,4.33
2018-06-30T03:10:13.779Z,3.93
2018-06-30T03:12:40.164Z,3.63
2018-06-30T03:15:06.516Z,4.23
2018-06-30T03:17:32.833Z,4.03
2018-06-30T03:19:59.153Z,5.33
2018-06-30T03:22:25.496Z,4.07
2018-06-30T03:24:51.881Z,4.50
2018-06-30T03:27:18.242Z,4.73
2018-06-30T03:29:44.603Z,4.27
2018-06-30T03:32:10.987Z,4.43
2018-06-30T03:34:37.309Z,4.30
2018-06-30T03:37:03.672Z,4.53
2018-06-30T03:39:29.994Z,5.10
2018-06-30T03:41:56.431Z,4.20
2018-06-30T03:44:22.760Z,4.70
2018-06-30T03:46:49.132Z,4.83
2018-06-30T03:49:15.489Z,4.83
2018-06-30T03:51:41.813Z,4.50
2018-06-30T03:54:08.166Z,4.00
2018-06-30T03:56:34.520Z,3.93
2018-06-30T03:59:00.938Z,4.83
2018-06-30T04:01:27.470Z,4.93
2018-06-30T04:03:53.821Z,4.40
2018-06-30T04:06:20.169Z,4.83
2018-06-30T04:08:46.520Z,4.30
2018-06-30T04:11:12.844Z,4.27
2018-06-30T04:13:39.213Z,4.77
2018-06-30T04:16:05.579Z,4.97
2018-06-30T04:18:31.897Z,5.30
2018-06-30T04:20:58.270Z,4.50
2018-06-30T04:23:24.611Z,4.47
2018-06-30T04:25:50.942Z,4.77
2018-06-30T04:28:17.305Z,4.77
2018-06-30T04:30:43.653Z,5.00
2018-06-30T04:33:10.041Z,4.40
2018-06-30T04:35:36.385Z,4.63
2018-06-30T04:38:02.775Z,5.20
2018-06-30T04:40:29.148Z,5.20
2018-06-30T04:42:55.572Z,4.57
2018-06-30T04:45:21.899Z,5.07
2018-06-30T04:47:48.257Z,5.30
2018-06-30T04:50:14.585Z,4.97
2018-06-30T04:52:40.902Z,5.27
2018-06-30T04:55:07.234Z,5.17
2018-06-30T04:57:33.639Z,4.80
2018-06-30T05:00:00.010Z,4.93
2018-06-30T05:02:26.332Z,4.63
2018-06-30T05:04:52.745Z,5.90
2018-06-30T05:07:19.155Z,5.20
2018-06-30T05:09:45.550Z,4.93
2018-06-30T05:12:11.900Z,5.00
2018-06-30T05:14:38.268Z,4.93
2018-06-30T05:17:04.627Z,4.97
2018-06-30T05:19:30.997Z,5.23
2018-06-30T05:21:57.446Z,5.00
2018-06-30T05:24:23.769Z,5.07
2018-06-30T05:26:50.099Z,5.60
2018-06-30T05:29:16.446Z,4.73
2018-06-30T05:31:42.876Z,5.57
2018-06-30T05:34:09.224Z,4.70
2018-06-30T05:36:35.557Z,5.67
2018-06-30T05:39:01.890Z,5.53
2018-06-30T05:41:28.321Z,5.10
2018-06-30T05:43:54.693Z,5.40
2018-06-30T05:46:21.037Z,4.70
2018-06-30T05:48:47.370Z,5.17
2018-06-30T05:51:13.700Z,5.67
2018-06-30T05:53:40.037Z,5.40
2018-06-30T05:56:06.439Z,4.73
2018-06-30T05:58:32.770Z,5.20
2018-06-30T06:00:59.133Z,5.20
2018-06-30T06:03:25.487Z,5.50
2018-06-30T06:05:51.822Z,5.43
2018-06-30T06:08:18.176Z,5.57
2018-06-30T06:10:44.557Z,6.77
2018-06-30T06:13:10.890Z,5.40
2018-06-30T06:15:37.267Z,4.50
2018-06-30T06:18:03.598Z,5.07
2018-06-30T06:20:29.963Z,4.63
2018-06-30T06:22:56.285Z,4.87
2018-06-30T06:25:22.617Z,5.53
2018-06-30T06:27:49.036Z,5.80
2018-06-30T06:30:15.382Z,5.60
2018-06-30T06:32:41.901Z,5.30
2018-06-30T06:35:08.137Z,5.40
2018-06-30T06:37:34.523Z,5.40
2018-06-30T06:40:00.873Z,5.50
2018-06-30T06:42:27.221Z,4.40
2018-06-30T06:44:53.660Z,5.30
2018-06-30T06:47:20.067Z,5.63
2018-06-30T06:49:46.394Z,5.60
2018-06-30T06:52:12.732Z,5.43
2018-06-30T06:54:39.089Z,5.33
2018-06-30T06:57:05.423Z,5.90
2018-06-30T06:59:31.759Z,5.70
2018-06-30T07:01:58.165Z,5.30
2018-06-30T07:04:24.525Z,5.10
2018-06-30T07:06:50.865Z,5.77
2018-06-30T07:09:17.255Z,4.97
2018-06-30T07:11:43.614Z,5.60
2018-06-30T07:14:10.049Z,5.80
2018-06-30T07:16:36.399Z,5.90
2018-06-30T07:19:02.830Z,5.37
2018-06-30T07:21:29.216Z,5.90
2018-06-30T07:23:55.701Z,5.50
2018-06-30T07:26:22.048Z,5.43
2018-06-30T07:28:48.394Z,4.73
2018-06-30T07:31:14.802Z,5.27
2018-06-30T07:33:41.190Z,5.70
2018-06-30T07:36:07.557Z,5.30
2018-06-30T07:38:34.055Z,5.57
2018-06-30T07:41:00.449Z,6.00
2018-06-30T07:43:26.906Z,5.87
2018-06-30T07:45:53.237Z,5.00
2018-06-30T07:48:19.722Z,5.73
2018-06-30T07:50:46.086Z,6.20
2018-06-30T07:53:12.452Z,5.00
2018-06-30T07:55:38.821Z,5.77
2018-06-30T07:58:05.170Z,5.30
2018-06-30T08:00:31.804Z,6.07
2018-06-30T08:02:57.943Z,6.03
2018-06-30T08:05:24.281Z,6.00
2018-06-30T08:07:50.647Z,5.17
2018-06-30T08:10:17.029Z,5.60
2018-06-30T08:12:43.351Z,5.40
2018-06-30T08:15:09.683Z,5.63
2018-06-30T08:17:36.090Z,5.63
2018-06-30T08:20:02.463Z,5.20
2018-06-30T08:22:28.796Z,6.17
2018-06-30T08:24:55.161Z,5.47
2018-06-30T08:27:21.517Z,5.70
2018-06-30T08:29:47.886Z,5.40
2018-06-30T08:32:14.267Z,5.43
2018-06-30T08:34:40.656Z,5.27
2018-06-30T08:37:07.028Z,5.27
2018-06-30T08:39:33.391Z,7.77
2018-06-30T08:41:59.746Z,5.27
2018-06-30T08:44:26.085Z,5.40
2018-06-30T08:46:52.418Z,5.17
2018-06-30T08:49:18.793Z,5.03
2018-06-30T08:51:45.145Z,5.30
2018-06-30T08:54:11.480Z,6.23
2018-06-30T08:56:37.846Z,5.43
2018-06-30T08:59:04.182Z,4.50
2018-06-30T09:01:30.546Z,5.80
2018-06-30T09:03:56.872Z,5.70
2018-06-30T09:06:23.308Z,6.97
2018-06-30T09:08:49.590Z,5.30
2018-06-30T09:11:15.961Z,5.30
2018-06-30T09:13:42.287Z,6.40
2018-06-30T09:16:08.615Z,5.63
2018-06-30T09:18:34.976Z,5.67
2018-06-30T09:21:01.320Z,5.50
2018-06-30T09:23:27.657Z,5.17
2018-06-30T09:25:54.074Z,5.37
2018-06-30T09:28:20.453Z,5.47
2018-06-30T09:30:46.771Z,5.70
2018-06-30T09:33:13.119Z,6.10
2018-06-30T09:35:39.451Z,5.87
2018-06-30T09:38:05.856Z,5.57
2018-06-30T09:40:32.190Z,5.20
2018-06-30T09:42:58.508Z,5.50
2018-06-30T09:45:24.892Z,5.37
2018-06-30T09:47:51.223Z,6.00
2018-06-30T09:50:17.559Z,5.70
2018-06-30T09:52:43.890Z,5.67
2018-06-30T09:55:10.258Z,5.83
2018-06-30T09:57:36.574Z,6.10
2018-06-30T10:00:02.988Z,5.57
2018-06-30T10:02:29.359Z,5.90
2018-06-30T10:04:55.699Z,5.90
2018-06-30T10:07:22.070Z,5.27
2018-06-30T10:09:48.376Z,6.30
2018-06-30T10:12:14.751Z,5.77
2018-06-30T10:14:41.093Z,6.27
2018-06-30T10:17:07.417Z,5.80
2018-06-30T10:19:33.862Z,5.80
2018-06-30T10:22:00.172Z,5.40
2018-06-30T10:24:26.583Z,5.40
2018-06-30T10:26:53.016Z,5.90
2018-06-30T10:29:19.402Z,6.23
2018-06-30T10:31:45.729Z,6.10
2018-06-30T10:34:12.122Z,6.20
2018-06-30T10:36:38.439Z,5.50
2018-06-30T10:39:04.758Z,6.17
2018-06-30T10:41:31.079Z,5.83
2018-06-30T10:43:57.412Z,5.87
2018-06-30T10:46:23.743Z,6.43
2018-06-30T10:48:50.112Z,6.40
2018-06-30T10:51:17.271Z,5.50
2018-06-30T10:53:43.599Z,5.80
2018-06-30T10:56:09.952Z,5.87
2018-06-30T10:58:36.287Z,6.27
2018-06-30T11:01:02.660Z,5.87
2018-06-30T11:03:29.015Z,6.37
2018-06-30T11:05:55.423Z,6.13
2018-06-30T11:08:21.745Z,5.03
2018-06-30T11:10:48.084Z,5.93
2018-06-30T11:13:14.430Z,6.20
2018-06-30T11:15:40.748Z,5.70
2018-06-30T11:18:07.080Z,6.30
2018-06-30T11:20:33.416Z,6.30
2018-06-30T11:22:59.817Z,5.73
2018-06-30T11:25:26.168Z,6.23
2018-06-30T11:27:52.500Z,6.67
2018-06-30T11:30:18.835Z,6.30
2018-06-30T11:32:45.194Z,5.70
2018-06-30T11:35:11.509Z,6.33
2018-06-30T11:37:37.947Z,6.23
2018-06-30T11:40:04.368Z,5.77
2018-06-30T11:42:30.715Z,6.20
2018-06-30T11:44:57.179Z,5.97
2018-06-30T11:47:23.499Z,6.07
2018-06-30T11:49:49.817Z,6.10
2018-06-30T11:52:16.143Z,6.20
2018-06-30T11:54:42.487Z,6.20
2018-06-30T11:57:08.837Z,7.27
2018-06-30T11:59:35.187Z,6.40
2018-06-30T12:02:01.549Z,6.30
2018-06-30T12:04:27.881Z,5.70
2018-06-30T12:06:54.230Z,6.33
2018-06-30T12:09:20.637Z,5.67
2018-06-30T12:11:46.936Z,6.20
2018-06-30T12:14:13.266Z,5.87
2018-06-30T12:16:39.597Z,5.63
2018-06-30T12:19:05.936Z,6.50
2018-06-30T12:21:32.328Z,6.60
2018-06-30T12:23:58.694Z,6.57
2018-06-30T12:26:25.094Z,6.30
2018-06-30T12:28:51.402Z,6.00
2018-06-30T12:31:17.836Z,5.97
2018-06-30T12:33:44.159Z,6.30
2018-06-30T12:36:10.481Z,6.47
2018-06-30T12:38:36.807Z,6.27
2018-06-30T12:41:03.190Z,6.17
2018-06-30T12:43:29.516Z,6.17
2018-06-30T12:45:55.873Z,6.90
2018-06-30T12:48:22.202Z,6.13
2018-06-30T12:50:48.535Z,6.50
2018-06-30T12:53:14.901Z,5.83
2018-06-30T12:55:41.277Z,5.80
2018-06-30T12:58:07.609Z,6.40
2018-06-30T13:00:33.991Z,7.67
2018-06-30T13:03:00.306Z,5.90
2018-06-30T13:05:26.684Z,6.43
2018-06-30T13:07:53.050Z,6.53
2018-06-30T13:10:19.393Z,6.00
2018-06-30T13:12:45.756Z,6.40
2018-06-30T13:15:12.076Z,7.10
2018-06-30T13:17:38.475Z,7.27
2018-06-30T13:20:04.795Z,6.90
2018-06-30T13:22:31.127Z,6.53
2018-06-30T13:24:57.496Z,7.17
2018-06-30T13:27:23.878Z,7.30
2018-06-30T13:29:50.235Z,6.30
2018-06-30T13:32:16.568Z,6.43
2018-06-30T13:34:42.888Z,6.73
2018-06-30T13:37:09.216Z,7.60
2018-06-30T13:39:35.613Z,6.20
2018-06-30T13:42:01.961Z,6.17
2018-06-30T13:44:28.284Z,6.63
2018-06-30T13:46:54.605Z,7.47
2018-06-30T13:49:21.013Z,7.30
2018-06-30T13:51:47.361Z,6.67
2018-06-30T13:54:13.686Z,7.50
2018-06-30T13:56:40.040Z,6.90
2018-06-30T13:59:06.377Z,7.43
2018-06-30T14:01:32.701Z,8.40
2018-06-30T14:03:59.087Z,6.97
2018-06-30T14:06:25.404Z,7.00
2018-06-30T14:08:51.733Z,7.40
2018-06-30T14:11:18.057Z,7.30
2018-06-30T14:13:44.382Z,7.30
2018-06-30T14:16:10.712Z,7.80
2018-06-30T14:18:37.105Z,7.30
2018-06-30T14:21:03.398Z,7.43
2018-06-30T14:23:29.787Z,7.53
2018-06-30T14:25:56.080Z,7.20
2018-06-30T14:28:22.403Z,7.23
2018-06-30T14:30:48.735Z,7.17
2018-06-30T14:33:15.063Z,7.53
2018-06-30T14:35:41.387Z,7.20
2018-06-30T14:38:07.738Z,8.43
2018-06-30T14:40:34.084Z,6.63
2018-06-30T14:43:00.419Z,7.33
2018-06-30T14:45:26.759Z,7.30
2018-06-30T14:47:53.152Z,7.87
2018-06-30T14:50:19.478Z,7.27
2018-06-30T14:52:45.800Z,7.17
2018-06-30T14:55:12.213Z,8.10
2018-06-30T14:57:38.491Z,8.00
2018-06-30T15:00:04.873Z,7.90
2018-06-30T15:02:31.204Z,7.50
2018-06-30T15:04:57.600Z,7.17
2018-06-30T15:07:23.960Z,7.60
2018-06-30T15:09:50.296Z,7.60
2018-06-30T15:12:16.675Z,7.07
2018-06-30T15:14:43.003Z,8.17
2018-06-30T15:17:09.323Z,8.00
2018-06-30T15:19:35.688Z,8.00
2018-06-30T15:22:02.010Z,7.47
2018-06-30T15:24:28.410Z,8.27
2018-06-30T15:26:54.745Z,7.30
2018-06-30T15:29:21.067Z,7.20
2018-06-30T15:31:47.437Z,8.40
2018-06-30T15:34:13.784Z,8.47
2018-06-30T15:36:40.166Z,7.33
2018-06-30T15:39:06.483Z,7.10
2018-06-30T15:41:32.855Z,8.03
2018-06-30T15:43:59.170Z,7.00
2018-06-30T15:46:25.537Z,7.47
2018-06-30T15:48:51.923Z,7.30
2018-06-30T15:51:18.279Z,7.83
2018-06-30T15:53:44.652Z,8.07
2018-06-30T15:56:10.982Z,8.10
2018-06-30T15:58:37.358Z,7.30
2018-06-30T16:01:03.789Z,7.73
2018-06-30T16:03:30.143Z,7.90
2018-06-30T16:05:56.561Z,7.70
2018-06-30T16:08:22.956Z,7.40
2018-06-30T16:10:49.383Z,7.50
2018-06-30T16:13:15.708Z,8.70
2018-06-30T16:15:42.040Z,7.53
2018-06-30T16:18:08.399Z,7.60
2018-06-30T16:20:34.711Z,7.90
2018-06-30T16:23:01.184Z,7.70
2018-06-30T16:25:27.557Z,7.97
2018-06-30T16:27:53.914Z,7.90
2018-06-30T16:30:20.247Z,8.30
2018-06-30T16:32:46.616Z,7.47
2018-06-30T16:35:13.017Z,8.07
2018-06-30T16:37:39.341Z,7.53
2018-06-30T16:40:05.652Z,7.30
2018-06-30T16:42:32.020Z,8.10
2018-06-30T16:44:58.426Z,7.53
2018-06-30T16:47:24.821Z,8.00
2018-06-30T16:49:51.168Z,8.00
2018-06-30T16:52:17.514Z,7.97
2018-06-30T16:54:43.876Z,8.13
2018-06-30T16:57:10.198Z,8.43
2018-06-30T16:59:36.545Z,7.80
2018-06-30T17:02:02.959Z,8.00
2018-06-30T17:04:29.340Z,7.93
2018-06-30T17:06:55.688Z,8.03
2018-06-30T17:09:22.080Z,7.97
2018-06-30T17:11:48.454Z,7.77
2018-06-30T17:14:14.782Z,8.10
2018-06-30T17:16:41.182Z,7.80
2018-06-30T17:19:07.542Z,6.93
2018-06-30T17:21:33.939Z,8.27
2018-06-30T17:24:00.276Z,8.47
2018-06-30T17:26:26.794Z,8.03
2018-06-30T17:28:53.080Z,8.20
2018-06-30T17:31:19.474Z,8.47
2018-06-30T17:33:45.797Z,8.10
2018-06-30T17:36:12.153Z,8.17
2018-06-30T17:38:38.505Z,7.87
2018-06-30T17:41:04.853Z,7.70
2018-06-30T17:43:31.253Z,8.33
2018-06-30T17:45:57.635Z,8.13
2018-06-30T17:48:23.987Z,8.60
2018-06-30T17:50:50.366Z,7.50
2018-06-30T17:53:16.691Z,7.73
2018-06-30T17:55:43.057Z,8.30
2018-06-30T17:58:09.414Z,7.63
2018-06-30T18:00:35.744Z,8.60
2018-06-30T18:03:02.065Z,8.93
2018-06-30T18:05:28.435Z,8.70
2018-06-30T18:07:54.798Z,8.77
2018-06-30T18:10:21.206Z,8.23
2018-06-30T18:12:47.613Z,9.13
2018-06-30T18:15:13.932Z,9.23
2018-06-30T18:17:40.264Z,9.53
2018-06-30T18:20:06.629Z,9.60
2018-06-30T18:22:32.992Z,9.00
2018-06-30T18:24:59.417Z,8.70
2018-06-30T18:27:25.747Z,8.50
2018-06-30T18:29:52.076Z,9.10
2018-06-30T18:32:18.425Z,9.20
2018-06-30T18:34:44.759Z,9.40
2018-06-30T18:37:11.126Z,9.27
2018-06-30T18:39:37.451Z,9.57
2018-06-30T18:42:03.823Z,9.00
2018-06-30T18:44:30.135Z,9.73
2018-06-30T18:46:56.503Z,8.60
2018-06-30T18:49:22.868Z,9.30
2018-06-30T18:51:49.237Z,9.20
2018-06-30T18:54:15.576Z,9.37
2018-06-30T18:56:41.953Z,9.30
2018-06-30T18:59:08.272Z,8.50
2018-06-30T19:01:34.609Z,9.30
2018-06-30T19:04:00.999Z,9.23
2018-06-30T19:06:27.336Z,9.30
2018-06-30T19:08:53.730Z,9.10
2018-06-30T19:11:20.070Z,9.40
2018-06-30T19:13:46.444Z,9.87
2018-06-30T19:16:12.792Z,9.60
2018-06-30T19:18:39.119Z,9.70
2018-06-30T19:21:05.451Z,9.07
2018-06-30T19:23:31.778Z,10.03
2018-06-30T19:25:58.196Z,9.17
2018-06-30T19:28:24.576Z,9.00
2018-06-30T19:30:50.946Z,9.37
2018-06-30T19:33:17.323Z,8.63
2018-06-30T19:35:43.650Z,8.93
2018-06-30T19:38:10.032Z,8.83
2018-06-30T19:40:36.417Z,9.67
2018-06-30T19:43:03.759Z,10.53
2018-06-30T19:45:30.195Z,9.40
2018-06-30T19:47:56.687Z,9.50
2018-06-30T19:50:23.445Z,9.57
2018-06-30T19:52:50.900Z,9.20
2018-06-30T19:55:17.396Z,9.60
2018-06-30T19:57:47.762Z,10.27
2018-06-30T20:00:14.958Z,11.10
2018-06-30T20:02:41.443Z,10.53
2018-06-30T20:05:09.028Z,9.53
2018-06-30T20:07:35.611Z,9.60
2018-06-30T20:10:02.844Z,9.67
2018-06-30T20:12:29.373Z,9.90
2018-06-30T20:14:55.816Z,9.93
2018-06-30T20:17:22.179Z,9.53
2018-06-30T20:19:48.512Z,10.87
2018-06-30T20:22:14.892Z,10.17
2018-06-30T20:24:41.252Z,10.53
2018-06-30T20:27:07.586Z,10.20
2018-06-30T20:29:33.945Z,9.73
2018-06-30T20:32:00.316Z,9.90
2018-06-30T20:34:26.683Z,10.23
2018-06-30T20:36:53.028Z,10.27
2018-06-30T20:39:19.358Z,9.77
2018-06-30T20:41:45.683Z,10.10
2018-06-30T20:44:12.052Z,9.97
2018-06-30T20:46:38.404Z,10.40
2018-06-30T20:49:04.779Z,9.97
2018-06-30T20:51:31.162Z,9.67
2018-06-30T20:53:57.528Z,10.17
2018-06-30T20:56:23.916Z,9.97
2018-06-30T20:58:50.292Z,9.60
2018-06-30T21:01:16.628Z,9.53
2018-06-30T21:03:43.012Z,9.33
2018-06-30T21:06:09.380Z,10.50
2018-06-30T21:08:35.713Z,10.10
2018-06-30T21:11:02.082Z,10.20
2018-06-30T21:13:28.435Z,10.00
2018-06-30T21:15:54.801Z,10.37
2018-06-30T21:18:21.129Z,10.27
2018-06-30T21:20:47.542Z,10.13
2018-06-30T21:23:13.855Z,9.53
2018-06-30T21:25:40.224Z,9.50
2018-06-30T21:28:06.579Z,10.40
2018-06-30T21:30:32.971Z,10.60
2018-06-30T21:32:59.330Z,10.07
2018-06-30T21:35:25.643Z,10.97
2018-06-30T21:37:52.050Z,10.20
2018-06-30T21:40:18.398Z,9.60
2018-06-30T21:42:44.743Z,9.77
2018-06-30T21:45:11.081Z,10.03
2018-06-30T21:47:37.512Z,10.60
2018-06-30T21:50:03.877Z,10.07
2018-06-30T21:52:30.215Z,10.10
2018-06-30T21:54:56.617Z,9.90
2018-06-30T21:57:22.934Z,10.23
2018-06-30T21:59:49.295Z,10.40
2018-06-30T22:02:15.620Z,10.47
2018-06-30T22:04:41.975Z,9.77
2018-06-30T22:07:08.296Z,10.57
2018-06-30T22:09:34.668Z,10.53
2018-06-30T22:12:01.072Z,10.27
2018-06-30T22:14:27.429Z,9.73
2018-06-30T22:16:53.765Z,11.13
2018-06-30T22:19:20.091Z,9.43
2018-06-30T22:21:46.508Z,10.63
2018-06-30T22:24:12.823Z,10.00
2018-06-30T22:26:39.170Z,10.17
2018-06-30T22:29:05.493Z,10.40
2018-06-30T22:31:31.816Z,10.50
2018-06-30T22:33:58.176Z,9.43
2018-06-30T22:36:24.514Z,10.33
2018-06-30T22:38:50.893Z,9.90
2018-06-30T22:41:17.217Z,10.60
2018-06-30T22:43:43.523Z,10.77
2018-06-30T22:46:09.840Z,10.70
2018-06-30T22:48:36.198Z,9.83
2018-06-30T22:51:02.554Z,10.07
2018-06-30T22:53:28.893Z,10.03
2018-06-30T22:55:55.216Z,10.50
2018-06-30T22:58:21.580Z,9.97
2018-06-30T23:00:47.912Z,9.17
2018-06-30T23:03:14.227Z,9.20
2018-06-30T23:05:40.578Z,9.70
2018-06-30T23:08:06.886Z,9.47
2018-06-30T23:10:33.261Z,9.07
2018-06-30T23:12:59.619Z,10.03
2018-06-30T23:15:26.001Z,8.90
2018-06-30T23:17:52.368Z,9.87
2018-06-30T23:20:18.712Z,9.37
2018-06-30T23:22:45.105Z,9.23
2018-06-30T23:25:11.434Z,10.20
2018-06-30T23:27:37.796Z,9.83
2018-06-30T23:30:04.155Z,9.80
2018-06-30T23:32:30.525Z,10.10
2018-06-30T23:34:56.884Z,9.40
2018-06-30T23:37:23.215Z,9.70
2018-06-30T23:39:49.534Z,9.17
2018-06-30T23:42:15.895Z,9.23
2018-06-30T23:44:42.244Z,9.00
2018-06-30T23:47:08.548Z,9.13
2018-06-30T23:49:34.897Z,9.60
2018-06-30T23:52:01.228Z,9.67
2018-06-30T23:54:27.598Z,8.83
2018-06-30T23:56:53.943Z,8.57
2018-06-30T23:59:20.275Z,8.87
